Hanalei, Hawaii
Current Conditions -  °F | °C
As of 1:53 AM on Friday 28 Nov 2014 (Local Time) from PHLI Reporting Station
Scattered Clouds Scattered Clouds  
Wind Chill: 73°   Ceiling: Unl
Heat Index: 73°   Visibility: 10mi
Dew Point: 64°   Wind: 22mph
Humidity: 73%   Direction: 60°ENE
Pressure: 30.09"   Gusts: NA
Location:  22.2°N, 159.49°W
Report Text: PHLI 281153Z 06019KT 10SM FEW028 SCT049 23/18 A3009 RMK AO2 PK WND 05026/1101 SLP185 60000 T02280178 10239 20217 55009 $
Loading
Personal Weather Stations






























Interactive Weather Map New forecast layout! Learn more

10-Day Weather Forecast

Advertisements
Track Severe Weather on mobile